Time;durP1;ratioP1;P1;durP2;ratioP2;P2;SDS_P1;SDS_P2;PMS_P1;PMS_P2;Temp;Humidity;BMP_temperature;BMP_pressure;BME280_temperature;BME280_humidity;BME280_pressure;Samples;Min_cycle;Max_cycle;Signal;HPM_P1;HPM_P2
2022/08/08 00:00:16;;;;;;;8.03;5.35;;;;;;;19.82;91.51;100130.16;1829054;76;21212;-76
2022/08/08 00:03:00;;;;;;;9.03;5.95;;;;;;;19.88;91.08;100133.31;1837239;76;20994;-75
2022/08/08 00:05:54;;;;;;;6.58;5.87;;;;;;;19.83;91.32;100135.30;1835755;77;21029;-73
2022/08/08 00:08:30;;;;;;;7.22;5.53;;;;;;;19.74;91.58;100142.03;1815942;77;21032;-74
2022/08/08 00:11:07;;;;;;;8.70;5.70;;;;;;;19.79;91.65;100144.88;1812193;77;21014;-75
2022/08/08 00:13:57;;;;;;;6.67;5.97;;;;;;;19.87;91.43;100145.66;1841501;77;21539;-76
2022/08/08 00:16:46;;;;;;;6.75;6.10;;;;;;;19.80;91.59;100145.19;1835825;77;21037;-74
2022/08/08 00:19:26;;;;;;;6.30;4.80;;;;;;;19.77;91.87;100145.62;1835145;77;21009;-77
2022/08/08 00:22:01;;;;;;;7.37;5.37;;;;;;;19.84;91.49;100149.63;1833286;77;21034;-73
2022/08/08 00:24:41;;;;;;;7.72;6.15;;;;;;;19.88;91.40;100152.72;1812212;77;22536;-76
2022/08/08 00:27:10;;;;;;;7.55;6.65;;;;;;;19.84;91.34;100147.75;1823515;77;21140;-76
2022/08/08 00:30:06;;;;;;;6.25;5.47;;;;;;;19.81;91.48;100154.91;1839063;77;21078;-76
2022/08/08 00:32:55;;;;;;;6.17;5.17;;;;;;;19.84;91.36;100148.28;1831215;77;21013;-76
2022/08/08 00:35:33;;;;;;;8.50;5.55;;;;;;;19.92;91.37;100149.88;1802244;79;21506;-75
2022/08/08 00:38:37;;;;;;;10.18;6.28;;;;;;;19.90;91.20;100151.97;1816263;78;21026;-74
2022/08/08 00:41:45;;;;;;;9.08;5.40;;;;;;;19.85;91.19;100151.27;1807824;78;21087;-74
2022/08/08 00:44:52;;;;;;;8.35;5.55;;;;;;;19.88;90.89;100149.48;1719158;81;21098;-75
2022/08/08 00:47:57;;;;;;;8.73;5.60;;;;;;;19.88;91.03;100150.02;1818314;78;21002;-77
2022/08/08 00:50:55;;;;;;;8.18;5.72;;;;;;;19.82;91.21;100143.63;1765230;79;21524;-76
2022/08/08 00:54:10;;;;;;;7.35;5.37;;;;;;;19.76;91.26;100136.39;1801877;77;21033;-76
2022/08/08 00:57:22;;;;;;;11.20;6.03;;;;;;;19.81;90.87;100142.78;1802660;78;21887;-76
2022/08/08 01:00:15;;;;;;;14.80;6.67;;;;;;;19.75;91.15;100143.66;1791149;78;21006;-75
2022/08/08 01:03:04;;;;;;;6.83;5.92;;;;;;;19.68;91.80;100145.55;1824688;77;21044;-78
2022/08/08 01:05:51;;;;;;;8.85;6.00;;;;;;;19.74;91.59;100146.07;1802851;78;21651;-77
2022/08/08 01:08:48;;;;;;;9.30;6.10;;;;;;;19.79;91.46;100143.53;1804550;78;20994;-79
2022/08/08 01:11:42;;;;;;;7.90;7.08;;;;;;;19.71;91.42;100147.81;1802109;79;22375;-75
2022/08/08 01:14:54;;;;;;;9.05;6.00;;;;;;;19.64;91.99;100143.83;1784387;79;21096;-77
2022/08/08 01:17:55;;;;;;;8.98;6.87;;;;;;;19.75;91.87;100140.97;1754398;79;21010;-76
2022/08/08 01:20:52;;;;;;;13.08;7.20;;;;;;;19.79;91.65;100142.18;1779833;79;21730;-75
2022/08/08 01:23:42;;;;;;;9.43;6.90;;;;;;;19.75;91.99;100142.84;1770824;78;21096;-76
2022/08/08 01:26:15;;;;;;;7.90;6.42;;;;;;;19.84;91.83;100145.05;1797424;79;21491;-76
2022/08/08 01:29:01;;;;;;;11.08;7.92;;;;;;;19.90;91.09;100137.96;1771870;79;21089;-77
2022/08/08 01:32:01;;;;;;;11.20;7.80;;;;;;;19.84;91.36;100145.05;1738187;79;21037;-82
2022/08/08 01:34:54;;;;;;;10.20;7.08;;;;;;;19.76;91.10;100145.33;1781127;80;21540;-77
2022/08/08 01:37:50;;;;;;;10.58;6.75;;;;;;;19.75;91.16;100147.70;1780787;79;21066;-76
2022/08/08 01:40:41;;;;;;;11.68;7.47;;;;;;;19.78;91.03;100150.48;1767999;79;21779;-75
2022/08/08 01:43:22;;;;;;;10.48;7.60;;;;;;;19.65;90.79;100148.69;1751473;80;21084;-76
2022/08/08 01:45:56;;;;;;;9.98;7.10;;;;;;;19.47;91.43;100149.44;1780419;79;21088;-78
2022/08/08 01:48:50;;;;;;;10.05;7.58;;;;;;;19.52;91.72;100150.13;1779371;80;21565;-79
2022/08/08 01:51:37;;;;;;;11.10;7.78;;;;;;;19.56;91.61;100149.45;1772869;79;21013;-78
2022/08/08 01:54:35;;;;;;;13.13;7.22;;;;;;;19.51;91.42;100152.00;1775887;79;21165;-76
2022/08/08 01:57:26;;;;;;;8.53;6.40;;;;;;;19.45;91.85;100150.99;1792845;79;21498;-73
2022/08/08 02:00:17;;;;;;;11.78;7.53;;;;;;;19.55;91.58;100157.78;1770649;80;21550;-76
2022/08/08 02:03:11;;;;;;;8.75;7.60;;;;;;;19.54;91.38;100149.37;1792966;78;21060;-76
2022/08/08 02:06:07;;;;;;;10.82;6.72;;;;;;;19.49;91.93;100154.58;1806055;78;21049;-80
2022/08/08 02:08:58;;;;;;;10.43;7.22;;;;;;;19.54;91.87;100157.47;1772720;80;21152;-78
2022/08/08 02:11:44;;;;;;;8.30;7.30;;;;;;;19.61;91.46;100155.56;1807301;79;21493;-78
2022/08/08 02:14:39;;;;;;;9.45;7.30;;;;;;;19.58;91.41;100153.29;1807244;78;21062;-77
2022/08/08 02:17:28;;;;;;;10.70;6.70;;;;;;;19.55;91.40;100157.25;1840071;77;21075;-78
2022/08/08 02:20:14;;;;;;;9.85;7.17;;;;;;;19.61;91.32;100158.26;1801657;79;21006;-75
2022/08/08 02:23:02;;;;;;;12.88;7.92;;;;;;;19.62;91.22;100153.16;1803143;78;21116;-78
2022/08/08 02:25:39;;;;;;;9.68;7.10;;;;;;;19.54;91.11;100152.89;1811835;78;21015;-79
2022/08/08 02:28:23;;;;;;;9.80;7.47;;;;;;;19.57;91.26;100153.00;1814447;78;21300;-78
2022/08/08 02:31:10;;;;;;;9.50;7.25;;;;;;;19.62;91.00;100155.85;1844198;77;21060;-78
2022/08/08 02:33:54;;;;;;;9.68;7.65;;;;;;;19.55;91.03;100155.09;1819629;77;21045;-78
2022/08/08 02:36:35;;;;;;;7.85;7.10;;;;;;;19.47;91.29;100162.91;1793648;77;21534;-78
2022/08/08 02:39:07;;;;;;;9.68;7.55;;;;;;;19.51;91.39;100160.58;1813178;77;21044;-76
2022/08/08 02:42:03;;;;;;;8.45;6.95;;;;;;;19.57;90.92;100155.70;1825062;77;21084;-77
2022/08/08 02:45:24;;;;;;;8.33;7.12;;;;;;;19.53;91.04;100158.49;1845343;77;21001;-78
2022/08/08 02:48:30;;;;;;;9.08;7.53;;;;;;;19.45;91.60;100163.62;1803213;77;20998;-76
2022/08/08 02:51:43;;;;;;;11.70;7.37;;;;;;;19.52;91.60;100160.38;1838884;77;21087;-77
2022/08/08 02:54:32;;;;;;;9.05;8.08;;;;;;;19.54;91.30;100161.51;1828982;77;21060;-78
2022/08/08 02:57:24;;;;;;;13.35;7.67;;;;;;;19.41;91.35;100160.55;1721833;77;21045;-75
2022/08/08 03:00:26;;;;;;;9.50;7.00;;;;;;;19.42;91.44;100164.06;1846286;77;21083;-77
2022/08/08 03:03:33;;;;;;;9.60;7.15;;;;;;;19.46;91.48;100163.94;1824641;77;20998;-75
2022/08/08 03:06:28;;;;;;;12.00;8.00;;;;;;;19.40;91.51;100166.97;1824576;77;22080;-76
2022/08/08 03:09:22;;;;;;;8.38;6.97;;;;;;;19.31;91.56;100168.78;1807657;77;21039;-76
2022/08/08 03:12:09;;;;;;;9.28;7.33;;;;;;;19.30;91.54;100169.31;1832202;77;21024;-79
2022/08/08 03:14:47;;;;;;;11.08;7.83;;;;;;;19.33;91.63;100174.78;1802996;77;21012;-78
2022/08/08 03:17:25;;;;;;;10.15;8.00;;;;;;;19.23;92.04;100176.06;1802431;78;21019;-78
2022/08/08 03:20:07;;;;;;;9.73;7.37;;;;;;;19.19;92.20;100186.14;1802090;79;21227;-78
2022/08/08 03:22:44;;;;;;;;;;;;;;;19.21;92.22;100180.02;1819646;77;21545;-78
2022/08/08 03:25:13;;;;;;;14.00;9.23;;;;;;;19.29;92.57;100182.46;1821060;77;20191;-77
2022/08/08 03:27:58;;;;;;;9.18;7.95;;;;;;;19.32;92.61;100183.39;1823080;77;21044;-74
2022/08/08 03:30:27;;;;;;;8.10;7.17;;;;;;;19.30;92.51;100180.62;1814376;77;21080;-79
2022/08/08 03:35:40;;;;;;;9.63;8.08;;;;;;;19.42;92.15;100185.63;1773746;78;21031;-74
2022/08/08 03:38:07;;;;;;;9.25;8.03;;;;;;;19.38;92.07;100178.48;1808197;77;21072;-74
2022/08/08 03:40:35;;;;;;;7.78;6.42;;;;;;;19.34;92.14;100179.96;1806901;77;21010;-75
2022/08/08 03:43:06;;;;;;;8.08;6.78;;;;;;;19.37;92.31;100178.20;1818515;78;21009;-76
2022/08/08 03:45:32;;;;;;;8.23;6.70;;;;;;;19.45;91.82;100187.37;1796330;77;21814;-74
2022/08/08 03:48:08;;;;;;;9.95;8.00;;;;;;;19.45;91.88;100183.82;1831922;77;21018;-77
2022/08/08 03:50:46;;;;;;;8.93;6.87;;;;;;;19.43;91.83;100185.41;1808776;77;20981;-75
2022/08/08 03:53:18;;;;;;;13.58;7.72;;;;;;;19.47;91.58;100192.55;1784771;79;21026;-74
2022/08/08 03:55:48;;;;;;;8.70;7.00;;;;;;;19.51;91.32;100182.98;1799334;78;21101;-75
2022/08/08 03:58:21;;;;;;;8.60;6.67;;;;;;;19.50;91.17;100192.09;1827669;77;21127;-78
2022/08/08 04:00:52;;;;;;;9.28;6.95;;;;;;;19.42;91.28;100189.66;1810714;77;21033;-77
2022/08/08 04:03:18;;;;;;;12.23;6.80;;;;;;;19.42;91.23;100187.78;1837220;77;20987;-78
2022/08/08 04:05:45;;;;;;;7.62;6.92;;;;;;;19.50;91.21;100189.93;1829655;76;21048;-77
2022/08/08 04:08:21;;;;;;;10.80;6.85;;;;;;;19.45;91.26;100190.56;1825111;77;21028;-77
2022/08/08 04:10:49;;;;;;;8.83;6.60;;;;;;;19.40;91.75;100196.60;1825472;77;21093;-76
2022/08/08 04:13:19;;;;;;;9.55;6.42;;;;;;;19.43;91.54;100202.92;1829762;78;21007;-77
2022/08/08 04:15:47;;;;;;;7.92;6.58;;;;;;;19.51;91.43;100203.69;1839470;77;21537;-79
2022/08/08 04:18:14;;;;;;;9.80;6.55;;;;;;;19.49;91.36;100207.13;1825980;77;21108;-77
2022/08/08 04:20:42;;;;;;;6.75;6.12;;;;;;;19.41;91.50;100206.36;1853044;77;20990;-75
2022/08/08 04:23:09;;;;;;;8.35;6.00;;;;;;;19.44;91.54;100202.39;1836306;77;21123;-75
2022/08/08 04:25:35;;;;;;;9.95;7.35;;;;;;;19.53;91.29;100205.15;1851222;77;21080;-73
2022/08/08 04:28:02;;;;;;;7.30;6.60;;;;;;;19.52;91.18;100205.36;1849223;77;21018;-89
2022/08/08 04:32:49;;;;;;;13.03;7.85;;;;;;;19.53;91.44;100204.30;1877767;74;22616;-86
2022/08/08 04:35:17;;;;;;;13.55;8.03;;;;;;;19.48;91.23;100204.14;1847418;77;20927;-88
2022/08/08 04:37:46;;;;;;;7.33;6.62;;;;;;;19.39;91.37;100207.09;1844049;77;21107;-89
2022/08/08 04:40:14;;;;;;;10.43;7.33;;;;;;;19.40;91.61;100206.03;1796912;77;21489;-85
2022/08/08 04:42:51;;;;;;;8.45;7.55;;;;;;;19.48;91.91;100210.34;1824696;77;21006;-92
2022/08/08 04:45:17;;;;;;;10.43;8.05;;;;;;;19.46;91.74;100205.70;1839309;75;21013;-90
2022/08/08 04:47:47;;;;;;;8.18;7.37;;;;;;;19.42;92.20;100204.48;1826161;76;21031;-91
2022/08/08 04:50:18;;;;;;;11.28;7.45;;;;;;;19.47;92.12;100208.71;1813600;79;21128;-88
2022/08/08 04:52:48;;;;;;;9.30;7.80;;;;;;;19.57;91.89;100204.20;1809072;79;20953;-87
2022/08/08 04:55:17;;;;;;;12.65;8.38;;;;;;;19.58;92.03;100203.14;1772699;79;21013;-88
2022/08/08 04:57:45;;;;;;;10.00;6.60;;;;;;;19.57;91.63;100210.41;1788212;78;21330;-85
2022/08/08 05:00:13;;;;;;;8.08;7.33;;;;;;;19.60;91.43;100213.19;1806897;78;21053;-85
2022/08/08 05:02:40;;;;;;;13.45;8.63;;;;;;;19.67;91.51;100216.67;1799621;78;21859;-81
2022/08/08 05:05:11;;;;;;;10.60;8.60;;;;;;;19.66;91.22;100210.97;1808241;79;21037;-83
2022/08/08 05:07:39;;;;;;;11.15;7.53;;;;;;;19.63;91.19;100215.45;1805513;78;21068;-79
2022/08/08 05:10:07;;;;;;;11.45;7.65;;;;;;;19.63;91.41;100210.06;1779566;78;21022;-83
2022/08/08 05:12:35;;;;;;;9.63;8.73;;;;;;;19.71;91.36;100208.45;1800280;78;21049;-81
2022/08/08 05:15:02;;;;;;;9.35;8.35;;;;;;;19.71;91.20;100211.16;1802997;78;21358;-80
2022/08/08 05:17:29;;;;;;;9.45;8.25;;;;;;;19.63;91.01;100214.93;1802547;78;20933;-83
2022/08/08 05:19:59;;;;;;;8.83;7.83;;;;;;;19.65;91.28;100216.06;1805209;78;21025;-83
2022/08/08 05:22:27;;;;;;;9.00;8.10;;;;;;;19.73;91.05;100221.75;1798973;79;21525;-84
2022/08/08 05:24:56;;;;;;;12.37;8.70;;;;;;;19.72;91.07;100227.67;1804769;78;21764;-82
2022/08/08 05:27:23;;;;;;;8.83;7.92;;;;;;;19.69;91.06;100229.94;1783612;78;21146;-82
2022/08/08 05:29:51;;;;;;;10.90;8.18;;;;;;;19.71;91.01;100226.51;1805600;78;21057;-83
2022/08/08 05:32:20;;;;;;;11.03;7.65;;;;;;;19.78;90.50;100231.34;1803654;79;20931;-84
2022/08/08 05:34:48;;;;;;;12.43;8.25;;;;;;;19.73;90.92;100229.31;1792771;79;21079;-81
2022/08/08 05:37:26;;;;;;;10.85;8.20;;;;;;;19.73;91.26;100234.70;1792189;79;21046;-88
2022/08/08 05:39:54;;;;;;;9.55;7.87;;;;;;;19.80;91.03;100234.68;1806269;78;21339;-89
2022/08/08 05:42:29;;;;;;;10.68;8.48;;;;;;;19.91;90.73;100242.05;1805634;77;21010;-87
2022/08/08 05:44:56;;;;;;;9.80;8.60;;;;;;;19.89;90.40;100247.37;1786573;78;20986;-88
2022/08/08 05:47:22;;;;;;;10.75;8.38;;;;;;;19.84;90.65;100250.19;1791385;78;20995;-88
2022/08/08 05:49:49;;;;;;;10.53;8.58;;;;;;;19.90;90.69;100253.08;1801242;78;22037;-88
2022/08/08 05:52:16;;;;;;;9.45;8.55;;;;;;;19.96;90.45;100247.63;1765250;79;21143;-89
2022/08/08 05:54:44;;;;;;;10.55;9.45;;;;;;;19.96;90.11;100250.86;1799014;79;21064;-89
2022/08/08 05:57:14;;;;;;;8.98;8.03;;;;;;;19.89;90.61;100249.53;1802662;78;21005;-86
2022/08/08 05:59:43;;;;;;;8.73;8.00;;;;;;;19.93;90.02;100255.32;1808254;78;20936;-87
2022/08/08 06:05:10;;;;;;;16.75;9.88;;;;;;;19.88;90.13;100249.77;1800999;78;21083;-87
2022/08/08 06:07:40;;;;;;;11.57;8.28;;;;;;;19.84;90.42;100251.55;1798509;78;20997;-87
2022/08/08 06:10:10;;;;;;;10.30;9.30;;;;;;;19.87;90.25;100246.23;1791913;78;21538;-87
2022/08/08 06:12:38;;;;;;;11.33;10.03;;;;;;;19.93;89.98;100248.05;1806836;79;21029;-88
2022/08/08 06:15:06;;;;;;;14.50;10.93;;;;;;;19.91;90.13;100252.84;1749484;78;21033;-84
2022/08/08 06:17:39;;;;;;;13.22;10.38;;;;;;;19.84;90.15;100251.55;1799915;79;21638;-87
2022/08/08 06:20:10;;;;;;;11.48;9.48;;;;;;;19.88;90.35;100252.47;1794992;78;21475;-87
2022/08/08 06:22:37;;;;;;;11.45;9.65;;;;;;;19.95;90.25;100254.08;1768183;79;21009;-83
2022/08/08 06:25:07;;;;;;;11.00;9.38;;;;;;;19.96;90.21;100251.67;1736795;82;21136;-88
2022/08/08 06:27:48;;;;;;;14.30;8.93;;;;;;;19.95;90.19;100251.88;1741615;82;21014;-88
2022/08/08 06:30:14;;;;;;;9.75;8.85;;;;;;;20.00;89.78;100253.42;1727474;81;21279;-88
2022/08/08 06:32:48;;;;;;;13.43;9.13;;;;;;;20.10;89.71;100248.36;1716325;82;21005;-86
2022/08/08 06:35:16;;;;;;;10.40;9.23;;;;;;;20.07;89.78;100258.25;1708510;82;21083;-87
2022/08/08 06:37:48;;;;;;;10.25;8.98;;;;;;;20.04;90.28;100258.67;1734915;81;20982;-86
2022/08/08 06:40:15;;;;;;;10.30;9.40;;;;;;;20.12;90.06;100256.23;1708280;82;21125;-87
2022/08/08 06:42:51;;;;;;;10.48;9.20;;;;;;;20.21;89.61;100257.63;1737526;81;21133;-85
2022/08/08 06:45:23;;;;;;;11.93;9.55;;;;;;;20.19;89.49;100258.38;1738066;82;21009;-86
2022/08/08 06:47:50;;;;;;;9.70;8.65;;;;;;;20.14;89.71;100260.36;1738459;81;21033;-86
2022/08/08 06:50:17;;;;;;;8.60;7.80;;;;;;;20.14;89.34;100259.02;1738027;81;21466;-86
2022/08/08 06:52:44;;;;;;;12.53;9.30;;;;;;;20.21;89.32;100264.37;1757052;79;21211;-84
2022/08/08 06:55:11;;;;;;;11.50;8.63;;;;;;;20.19;89.25;100264.59;1790511;77;21195;-91
2022/08/08 06:57:38;;;;;;;10.10;7.87;;;;;;;20.14;89.44;100272.50;1789048;79;21002;-91
2022/08/08 07:00:07;;;;;;;11.15;8.88;;;;;;;20.17;89.80;100266.68;1776392;80;20991;-94
2022/08/08 07:02:35;;;;;;;9.88;8.95;;;;;;;20.28;89.55;100270.55;1786919;79;21101;-90
2022/08/08 07:05:07;;;;;;;10.10;9.10;;;;;;;20.30;89.07;100273.86;1791005;79;21083;-91
2022/08/08 07:08:01;;;;;;;11.08;8.38;;;;;;;20.25;89.05;100287.17;1742797;79;21100;-90
2022/08/08 07:10:41;;;;;;;12.85;9.15;;;;;;;20.28;89.35;100293.98;1786680;79;21368;-88
2022/08/08 07:13:09;;;;;;;9.80;8.80;;;;;;;20.37;89.28;100276.49;1796454;79;21097;-84
2022/08/08 07:15:48;;;;;;;10.03;9.13;;;;;;;20.37;89.54;100277.84;1794456;79;21081;-84
2022/08/08 07:18:20;;;;;;;11.08;8.65;;;;;;;20.39;89.43;100286.55;1783479;79;20987;-83
2022/08/08 07:20:49;;;;;;;10.60;9.35;;;;;;;20.48;89.19;100289.28;1769515;79;21192;-83
2022/08/08 07:23:41;;;;;;;9.68;8.28;;;;;;;20.55;88.12;100287.36;1763100;80;20981;-86
2022/08/08 07:26:08;;;;;;;13.03;8.75;;;;;;;20.50;88.72;100295.28;1739368;81;21009;-87
2022/08/08 07:28:36;;;;;;;12.93;9.33;;;;;;;20.47;88.90;100292.19;1732991;81;20971;-80
2022/08/08 07:31:04;;;;;;;10.45;8.73;;;;;;;20.51;88.92;100291.52;1721232;81;21085;-82
2022/08/08 07:33:32;;;;;;;11.28;9.23;;;;;;;20.63;88.83;100297.09;1712897;82;21051;-83
2022/08/08 07:36:00;;;;;;;10.95;9.30;;;;;;;20.68;88.95;100292.36;1736626;81;21040;-82
2022/08/08 07:38:29;;;;;;;11.65;8.88;;;;;;;20.74;88.80;100292.83;1731471;81;21070;-81
2022/08/08 07:40:59;;;;;;;10.08;8.98;;;;;;;20.82;87.87;100287.13;1731910;81;21055;-79
2022/08/08 07:43:32;;;;;;;10.25;9.20;;;;;;;20.91;87.74;100294.44;1734759;82;21035;-81
2022/08/08 07:45:58;;;;;;;10.45;9.38;;;;;;;20.92;88.28;100293.38;1706943;82;21078;-81
2022/08/08 07:48:25;;;;;;;12.95;9.18;;;;;;;20.94;87.99;100289.95;1760030;79;21034;-87
2022/08/08 07:50:57;;;;;;;12.00;7.83;;;;;;;20.97;87.27;100298.94;1756348;79;21034;-88
2022/08/08 07:53:33;;;;;;;10.23;9.28;;;;;;;21.00;86.68;100300.67;1738720;81;21061;-88
2022/08/08 07:56:01;;;;;;;10.88;9.65;;;;;;;20.95;87.14;100289.70;1787292;78;21042;-87
2022/08/08 07:58:41;;;;;;;10.60;9.58;;;;;;;20.90;87.02;100301.72;1800706;78;21628;-87
2022/08/08 08:01:14;;;;;;;11.30;9.13;;;;;;;20.85;87.40;100306.13;1787098;79;20955;-89
2022/08/08 08:03:54;;;;;;;11.08;9.48;;;;;;;20.87;87.63;100299.98;1791293;79;21006;-87
2022/08/08 08:06:22;;;;;;;11.18;9.73;;;;;;;20.95;87.39;100299.16;1790493;77;21013;-85
2022/08/08 08:09:06;;;;;;;10.43;9.33;;;;;;;20.93;87.37;100299.09;1780187;78;21505;-85
2022/08/08 08:11:34;;;;;;;11.15;9.38;;;;;;;20.92;87.52;100305.02;1794092;79;21214;-86
2022/08/08 08:14:07;;;;;;;13.95;9.13;;;;;;;20.94;86.95;100304.27;1796402;77;20955;-85
2022/08/08 08:16:40;;;;;;;11.12;9.60;;;;;;;20.96;86.86;100302.17;1790985;78;21096;-86
2022/08/08 08:19:09;;;;;;;11.88;10.23;;;;;;;20.94;87.22;100305.63;1805307;79;20953;-84
2022/08/08 08:21:44;;;;;;;10.23;9.15;;;;;;;20.90;87.10;100307.12;1807617;78;21024;-90
2022/08/08 08:24:13;;;;;;;9.45;8.43;;;;;;;20.91;87.92;100309.29;1802336;79;21133;-87
2022/08/08 08:26:41;;;;;;;10.18;9.15;;;;;;;21.05;87.47;100311.33;1782303;78;20999;-87
2022/08/08 08:29:08;;;;;;;9.78;8.78;;;;;;;21.13;87.59;100308.33;1801812;78;21517;-91
2022/08/08 08:31:35;;;;;;;10.63;8.95;;;;;;;21.22;88.03;100313.75;1802619;78;21071;-90
2022/08/08 08:34:02;;;;;;;9.35;8.23;;;;;;;21.34;87.19;100311.97;1741454;79;21133;-91
2022/08/08 08:36:29;;;;;;;10.58;9.10;;;;;;;21.51;86.83;100310.84;1711452;82;21158;-90
2022/08/08 08:38:56;;;;;;;9.60;8.63;;;;;;;21.63;86.66;100312.26;1730982;81;21574;-89
2022/08/08 08:41:27;;;;;;;8.43;7.53;;;;;;;21.72;86.65;100307.38;1743079;78;21038;-91
2022/08/08 08:43:54;;;;;;;9.88;7.35;;;;;;;21.83;85.29;100313.88;1710053;79;21030;-91
2022/08/08 08:46:20;;;;;;;8.90;8.08;;;;;;;21.94;85.16;100317.16;1749788;78;20993;-91
2022/08/08 08:48:47;;;;;;;11.70;8.50;;;;;;;21.98;84.31;100308.88;1739916;78;21197;-88
2022/08/08 08:51:15;;;;;;;12.40;8.18;;;;;;;21.99;84.41;100305.95;1755243;78;21519;-84
2022/08/08 08:53:45;;;;;;;8.40;7.70;;;;;;;22.04;83.41;100310.70;1744715;80;21244;-86
2022/08/08 08:56:13;;;;;;;8.83;7.45;;;;;;;22.13;84.05;100299.82;1743280;81;21071;-84
2022/08/08 08:58:44;;;;;;;7.60;6.85;;;;;;;22.25;84.16;100305.83;1743693;81;21003;-84
2022/08/08 09:01:15;;;;;;;8.68;7.85;;;;;;;22.35;83.46;100306.11;1724996;81;22479;-85
2022/08/08 09:03:47;;;;;;;9.23;8.23;;;;;;;22.41;82.61;100310.59;1726063;81;21072;-85
2022/08/08 09:06:24;;;;;;;10.75;9.65;;;;;;;22.47;82.41;100313.72;1736597;81;21050;-85
2022/08/08 09:09:15;;;;;;;9.93;8.78;;;;;;;22.52;82.28;100308.44;1730263;81;21071;-73
2022/08/08 09:11:44;;;;;;;10.78;9.78;;;;;;;22.48;82.23;100308.58;1736618;81;21051;-86
2022/08/08 09:14:11;;;;;;;14.00;10.72;;;;;;;22.36;81.34;100309.09;1704628;84;20952;-85
2022/08/08 09:16:38;;;;;;;10.53;9.53;;;;;;;22.25;82.01;100318.01;1695267;80;21007;-85
2022/08/08 09:19:04;;;;;;;12.30;10.75;;;;;;;22.24;82.77;100313.64;1739455;78;20999;-85
2022/08/08 09:21:31;;;;;;;11.38;10.25;;;;;;;22.30;82.55;100316.80;1738649;81;21026;-82
2022/08/08 09:23:59;;;;;;;14.18;10.72;;;;;;;22.29;82.85;100313.27;1742792;81;21032;-85
2022/08/08 09:26:51;;;;;;;12.85;11.53;;;;;;;22.28;83.09;100312.97;1706969;84;21096;-85
2022/08/08 09:29:23;;;;;;;12.75;11.43;;;;;;;22.28;83.33;100308.09;1703800;83;21054;-86
2022/08/08 09:32:01;;;;;;;11.93;10.80;;;;;;;22.38;83.33;100313.22;1733986;82;21129;-84
2022/08/08 09:34:33;;;;;;;12.40;11.10;;;;;;;22.49;82.37;100314.84;1745103;80;21324;-83
2022/08/08 09:37:09;;;;;;;12.98;11.78;;;;;;;22.47;82.31;100315.61;1750323;80;21522;-82
2022/08/08 09:40:03;;;;;;;14.40;13.00;;;;;;;22.36;82.89;100315.33;1753174;81;21606;-82
2022/08/08 09:42:37;;;;;;;12.37;11.12;;;;;;;22.31;82.81;100309.81;1744106;80;21093;-82
2022/08/08 09:45:18;;;;;;;12.65;11.03;;;;;;;22.37;82.68;100317.00;1756298;80;21007;-83
2022/08/08 09:47:45;;;;;;;12.30;11.10;;;;;;;22.41;82.45;100313.30;1756227;81;20944;-82
2022/08/08 09:50:18;;;;;;;12.15;10.85;;;;;;;22.36;82.31;100309.92;1755860;80;21040;-85
2022/08/08 09:52:50;;;;;;;11.97;10.78;;;;;;;22.33;83.04;100308.23;1759053;80;21552;-82
2022/08/08 09:55:18;;;;;;;11.38;10.23;;;;;;;22.40;81.95;100310.28;1750091;79;28206;-84
2022/08/08 09:57:49;;;;;;;11.75;10.58;;;;;;;22.44;81.75;100314.17;1737353;82;21077;-83
2022/08/08 10:00:23;;;;;;;10.93;9.83;;;;;;;22.39;82.21;100316.77;1757731;80;21010;-84
2022/08/08 10:02:49;;;;;;;11.38;10.10;;;;;;;22.38;83.70;100320.52;1752915;80;21495;-82
2022/08/08 10:05:18;;;;;;;12.80;10.23;;;;;;;22.47;82.38;100319.13;1754927;80;21271;-82
2022/08/08 10:07:53;;;;;;;11.15;9.35;;;;;;;22.57;82.11;100313.96;1763861;80;21058;-83
2022/08/08 10:10:34;;;;;;;10.60;9.50;;;;;;;22.58;81.75;100325.64;1754284;81;21061;-86
2022/08/08 10:13:25;;;;;;;14.70;10.10;;;;;;;22.54;82.06;100325.27;1745817;80;20997;-85
2022/08/08 10:15:53;;;;;;;10.35;9.18;;;;;;;22.53;82.12;100324.15;1743926;81;21085;-81
2022/08/08 10:18:29;;;;;;;9.63;8.80;;;;;;;22.64;82.49;100319.79;1747665;81;21081;-81
2022/08/08 10:21:10;;;;;;;12.20;8.80;;;;;;;22.76;80.99;100317.40;1751245;80;21079;-81
2022/08/08 10:23:42;;;;;;;10.55;9.55;;;;;;;22.74;81.44;100319.52;1746567;81;21026;-79
2022/08/08 10:26:24;;;;;;;9.53;8.58;;;;;;;22.76;81.11;100317.94;1747755;81;21068;-81
2022/08/08 10:29:06;;;;;;;10.63;8.73;;;;;;;22.76;81.58;100319.29;1744399;80;21014;-80
2022/08/08 10:34:21;;;;;;;10.82;8.35;;;;;;;22.91;79.90;100322.36;1790065;79;21097;-83
2022/08/08 10:36:48;;;;;;;11.08;8.23;;;;;;;22.86;79.92;100319.52;1799535;79;21596;-81
2022/08/08 10:39:24;;;;;;;9.35;8.43;;;;;;;22.79;80.12;100321.52;1788943;78;21471;-82
2022/08/08 10:42:00;;;;;;;9.38;8.48;;;;;;;22.80;80.18;100322.36;1802343;79;21030;-83
2022/08/08 10:44:38;;;;;;;10.25;9.25;;;;;;;22.87;80.40;100318.48;1802354;79;21259;-82
2022/08/08 10:47:11;;;;;;;9.95;8.05;;;;;;;22.85;79.62;100319.75;1782371;79;21138;-81
2022/08/08 10:49:57;;;;;;;10.08;9.23;;;;;;;22.80;80.47;100318.30;1803173;78;21022;-87
2022/08/08 10:52:37;;;;;;;9.65;8.70;;;;;;;22.76;80.60;100319.29;1799748;79;21045;-87
2022/08/08 10:55:18;;;;;;;9.48;8.58;;;;;;;22.78;80.17;100315.28;1795444;78;21037;-85
2022/08/08 10:57:48;;;;;;;9.68;8.78;;;;;;;22.82;80.55;100316.17;1806866;78;21201;-85
2022/08/08 11:00:25;;;;;;;9.03;8.25;;;;;;;22.79;80.08;100310.68;1797586;78;20975;-82
2022/08/08 11:02:55;;;;;;;10.55;9.25;;;;;;;22.75;79.98;100314.92;1805728;78;21025;-82
2022/08/08 11:05:21;;;;;;;10.88;9.63;;;;;;;22.70;80.26;100312.92;1807136;79;21072;-85
2022/08/08 11:07:51;;;;;;;9.80;8.80;;;;;;;22.71;79.97;100314.55;1786983;79;21014;-83
2022/08/08 11:10:21;;;;;;;10.72;9.55;;;;;;;22.78;79.93;100309.05;1784280;78;21208;-82
2022/08/08 11:12:50;;;;;;;11.68;9.18;;;;;;;22.75;80.00;100311.70;1776203;79;21208;-82
2022/08/08 11:15:22;;;;;;;10.20;9.08;;;;;;;22.70;80.56;100308.86;1793505;79;21506;-83
2022/08/08 11:17:49;;;;;;;10.30;8.60;;;;;;;22.69;79.80;100306.38;1785024;78;20982;-82
2022/08/08 11:20:20;;;;;;;10.53;8.90;;;;;;;22.76;80.14;100304.39;1794852;79;21025;-83
2022/08/08 11:22:50;;;;;;;10.63;9.53;;;;;;;22.83;80.41;100306.47;1801973;78;21211;-85
2022/08/08 11:25:17;;;;;;;12.88;10.08;;;;;;;22.92;80.48;100307.73;1776136;79;21128;-84
2022/08/08 11:27:43;;;;;;;11.05;9.80;;;;;;;23.06;80.18;100306.17;1790025;78;21051;-84
2022/08/08 11:30:11;;;;;;;11.80;8.93;;;;;;;23.16;79.82;100307.23;1791426;78;21236;-84
2022/08/08 11:32:40;;;;;;;9.60;8.60;;;;;;;23.40;79.88;100303.12;1801183;79;21002;-83
2022/08/08 11:35:10;;;;;;;9.58;8.48;;;;;;;23.73;79.44;100301.08;1791797;79;21112;-82
2022/08/08 11:37:39;;;;;;;8.68;7.97;;;;;;;24.05;78.37;100300.63;1795713;78;20940;-80
2022/08/08 11:40:09;;;;;;;10.20;9.23;;;;;;;24.37;77.08;100298.73;1803669;79;21099;-81
2022/08/08 11:42:37;;;;;;;9.28;8.45;;;;;;;24.60;76.76;100292.89;1777385;79;21014;-82
2022/08/08 11:45:06;;;;;;;9.30;8.48;;;;;;;24.81;76.04;100285.33;1803256;79;21391;-83
2022/08/08 11:47:36;;;;;;;8.33;7.55;;;;;;;24.96;75.11;100288.00;1802963;78;21272;-85
2022/08/08 11:50:13;;;;;;;8.05;7.25;;;;;;;25.16;73.74;100284.73;1797274;79;21021;-84
2022/08/08 11:52:40;;;;;;;8.03;7.33;;;;;;;25.31;73.77;100284.96;1792055;79;21017;-85
2022/08/08 11:55:18;;;;;;;9.40;8.50;;;;;;;25.33;73.03;100286.08;1796270;79;21041;-86
2022/08/08 11:57:45;;;;;;;9.73;8.73;;;;;;;25.26;72.63;100286.24;1785601;78;20989;-84
2022/08/08 12:00:17;;;;;;;8.88;7.95;;;;;;;25.16;72.65;100286.91;1794286;78;21068;-84
2022/08/08 12:02:58;;;;;;;9.63;8.75;;;;;;;25.05;72.63;100292.75;1787709;79;20976;-82
2022/08/08 12:05:34;;;;;;;8.53;7.72;;;;;;;24.89;72.72;100290.33;1796679;79;21021;-84
2022/08/08 12:08:01;;;;;;;9.68;8.50;;;;;;;24.72;73.22;100291.73;1803510;79;21014;-83
2022/08/08 12:13:11;;;;;;;8.30;7.58;;;;;;;24.78;73.07;100285.81;1800483;78;21098;-82